sensor_id;sensor_type;location;lat;lon;timestamp;temperature;humidity
9881;DHT22;4979;51.014;6.678;2024-03-08T00:00:40;4.90;99.90
9881;DHT22;4979;51.014;6.678;2024-03-08T00:03:08;4.90;99.90
9881;DHT22;4979;51.014;6.678;2024-03-08T00:05:36;4.90;99.90
9881;DHT22;4979;51.014;6.678;2024-03-08T00:08:01;4.80;99.90
9881;DHT22;4979;51.014;6.678;2024-03-08T00:10:27;4.80;99.90
9881;DHT22;4979;51.014;6.678;2024-03-08T00:12:54;4.80;99.90
9881;DHT22;4979;51.014;6.678;2024-03-08T00:15:20;4.80;99.90
9881;DHT22;4979;51.014;6.678;2024-03-08T00:17:46;4.70;99.90
9881;DHT22;4979;51.014;6.678;2024-03-08T00:20:11;4.80;99.90
9881;DHT22;4979;51.014;6.678;2024-03-08T00:22:38;4.70;99.90
9881;DHT22;4979;51.014;6.678;2024-03-08T00:25:05;4.60;99.90
9881;DHT22;4979;51.014;6.678;2024-03-08T00:29:57;4.60;99.90
9881;DHT22;4979;51.014;6.678;2024-03-08T00:32:23;4.60;99.90
9881;DHT22;4979;51.014;6.678;2024-03-08T00:34:50;4.60;99.90
9881;DHT22;4979;51.014;6.678;2024-03-08T00:37:20;4.50;99.90
9881;DHT22;4979;51.014;6.678;2024-03-08T00:39:50;4.60;99.90
9881;DHT22;4979;51.014;6.678;2024-03-08T00:42:16;4.50;99.90
9881;DHT22;4979;51.014;6.678;2024-03-08T00:47:08;4.40;99.90
9881;DHT22;4979;51.014;6.678;2024-03-08T00:49:34;4.40;99.90
9881;DHT22;4979;51.014;6.678;2024-03-08T00:52:00;4.30;99.90
9881;DHT22;4979;51.014;6.678;2024-03-08T00:54:25;4.40;99.90
9881;DHT22;4979;51.014;6.678;2024-03-08T00:56:51;4.40;99.90
9881;DHT22;4979;51.014;6.678;2024-03-08T00:59:17;4.30;99.90
9881;DHT22;4979;51.014;6.678;2024-03-08T01:01:42;4.30;99.90
9881;DHT22;4979;51.014;6.678;2024-03-08T01:04:09;4.20;99.90
9881;DHT22;4979;51.014;6.678;2024-03-08T01:11:27;4.20;99.90
9881;DHT22;4979;51.014;6.678;2024-03-08T01:13:53;4.20;99.90
9881;DHT22;4979;51.014;6.678;2024-03-08T01:16:19;4.10;99.90
9881;DHT22;4979;51.014;6.678;2024-03-08T01:18:47;4.10;99.90
9881;DHT22;4979;51.014;6.678;2024-03-08T01:21:13;4.00;99.90
9881;DHT22;4979;51.014;6.678;2024-03-08T01:23:39;4.10;99.90
9881;DHT22;4979;51.014;6.678;2024-03-08T01:26:04;4.00;99.90
9881;DHT22;4979;51.014;6.678;2024-03-08T01:28:30;4.00;99.90
9881;DHT22;4979;51.014;6.678;2024-03-08T01:30:56;4.00;99.90
9881;DHT22;4979;51.014;6.678;2024-03-08T01:33:23;4.00;99.90
9881;DHT22;4979;51.014;6.678;2024-03-08T01:35:53;3.90;99.90
9881;DHT22;4979;51.014;6.678;2024-03-08T01:38:20;4.00;99.90
9881;DHT22;4979;51.014;6.678;2024-03-08T01:40:49;4.00;99.90
9881;DHT22;4979;51.014;6.678;2024-03-08T01:43:19;3.90;99.90
9881;DHT22;4979;51.014;6.678;2024-03-08T01:45:45;4.00;99.90
9881;DHT22;4979;51.014;6.678;2024-03-08T01:48:11;3.90;99.90
9881;DHT22;4979;51.014;6.678;2024-03-08T01:50:38;4.00;99.90
9881;DHT22;4979;51.014;6.678;2024-03-08T01:53:05;4.00;99.90
9881;DHT22;4979;51.014;6.678;2024-03-08T01:55:31;4.00;99.90
9881;DHT22;4979;51.014;6.678;2024-03-08T01:57:58;3.90;99.90
9881;DHT22;4979;51.014;6.678;2024-03-08T02:00:25;3.90;99.90
9881;DHT22;4979;51.014;6.678;2024-03-08T02:02:53;3.90;99.90
9881;DHT22;4979;51.014;6.678;2024-03-08T02:05:20;3.90;99.90
9881;DHT22;4979;51.014;6.678;2024-03-08T02:07:46;3.90;99.90
9881;DHT22;4979;51.014;6.678;2024-03-08T02:10:12;3.80;99.90
9881;DHT22;4979;51.014;6.678;2024-03-08T02:12:38;3.90;99.90
9881;DHT22;4979;51.014;6.678;2024-03-08T02:15:04;3.80;99.90
9881;DHT22;4979;51.014;6.678;2024-03-08T02:17:32;3.80;99.90
9881;DHT22;4979;51.014;6.678;2024-03-08T02:19:59;3.90;99.90
9881;DHT22;4979;51.014;6.678;2024-03-08T02:22:27;3.80;99.90
9881;DHT22;4979;51.014;6.678;2024-03-08T02:24:54;3.80;99.90
9881;DHT22;4979;51.014;6.678;2024-03-08T02:27:24;3.80;99.90
9881;DHT22;4979;51.014;6.678;2024-03-08T02:29:52;3.80;99.90
9881;DHT22;4979;51.014;6.678;2024-03-08T02:32:24;3.80;99.90
9881;DHT22;4979;51.014;6.678;2024-03-08T02:34:50;3.80;99.90
9881;DHT22;4979;51.014;6.678;2024-03-08T02:37:16;3.80;99.90
9881;DHT22;4979;51.014;6.678;2024-03-08T02:39:42;3.80;99.90
9881;DHT22;4979;51.014;6.678;2024-03-08T02:42:08;3.70;99.90
9881;DHT22;4979;51.014;6.678;2024-03-08T02:44:33;3.70;99.90
9881;DHT22;4979;51.014;6.678;2024-03-08T02:46:59;3.60;99.90
9881;DHT22;4979;51.014;6.678;2024-03-08T02:49:26;3.60;99.90
9881;DHT22;4979;51.014;6.678;2024-03-08T02:51:52;3.60;99.90
9881;DHT22;4979;51.014;6.678;2024-03-08T02:54:18;3.60;99.90
9881;DHT22;4979;51.014;6.678;2024-03-08T02:56:45;3.60;99.90
9881;DHT22;4979;51.014;6.678;2024-03-08T02:59:12;3.60;99.90
9881;DHT22;4979;51.014;6.678;2024-03-08T03:01:38;3.50;99.90
9881;DHT22;4979;51.014;6.678;2024-03-08T03:04:04;3.50;99.90
9881;DHT22;4979;51.014;6.678;2024-03-08T03:06:30;3.60;99.90
9881;DHT22;4979;51.014;6.678;2024-03-08T03:08:56;3.60;99.90
9881;DHT22;4979;51.014;6.678;2024-03-08T03:11:23;3.60;99.90
9881;DHT22;4979;51.014;6.678;2024-03-08T03:13:48;3.60;99.90
9881;DHT22;4979;51.014;6.678;2024-03-08T03:16:18;3.60;99.90
9881;DHT22;4979;51.014;6.678;2024-03-08T03:18:45;3.60;99.90
9881;DHT22;4979;51.014;6.678;2024-03-08T03:21:11;3.60;99.90
9881;DHT22;4979;51.014;6.678;2024-03-08T03:23:38;3.60;99.90
9881;DHT22;4979;51.014;6.678;2024-03-08T03:26:08;3.60;99.90
9881;DHT22;4979;51.014;6.678;2024-03-08T03:28:34;3.60;99.90
9881;DHT22;4979;51.014;6.678;2024-03-08T03:30:59;3.70;99.90
9881;DHT22;4979;51.014;6.678;2024-03-08T03:33:25;3.60;99.90
9881;DHT22;4979;51.014;6.678;2024-03-08T03:35:51;3.70;99.90
9881;DHT22;4979;51.014;6.678;2024-03-08T03:38:20;3.60;99.90
9881;DHT22;4979;51.014;6.678;2024-03-08T03:40:48;3.60;99.90
9881;DHT22;4979;51.014;6.678;2024-03-08T03:43:17;3.60;99.90
9881;DHT22;4979;51.014;6.678;2024-03-08T03:45:43;3.60;99.90
9881;DHT22;4979;51.014;6.678;2024-03-08T03:48:09;3.60;99.90
9881;DHT22;4979;51.014;6.678;2024-03-08T03:50:35;3.60;99.90
9881;DHT22;4979;51.014;6.678;2024-03-08T03:55:28;3.60;99.90
9881;DHT22;4979;51.014;6.678;2024-03-08T03:57:54;3.50;99.90
9881;DHT22;4979;51.014;6.678;2024-03-08T04:00:19;3.60;99.90
9881;DHT22;4979;51.014;6.678;2024-03-08T04:02:45;3.50;99.90
9881;DHT22;4979;51.014;6.678;2024-03-08T04:05:12;3.50;99.90
9881;DHT22;4979;51.014;6.678;2024-03-08T04:07:38;3.40;99.90
9881;DHT22;4979;51.014;6.678;2024-03-08T04:10:05;3.30;99.90
9881;DHT22;4979;51.014;6.678;2024-03-08T04:12:34;3.30;99.90
9881;DHT22;4979;51.014;6.678;2024-03-08T04:15:00;3.30;99.90
9881;DHT22;4979;51.014;6.678;2024-03-08T04:19:52;3.40;99.90
9881;DHT22;4979;51.014;6.678;2024-03-08T04:22:18;3.40;99.90
9881;DHT22;4979;51.014;6.678;2024-03-08T04:24:44;3.40;99.90
9881;DHT22;4979;51.014;6.678;2024-03-08T04:29:36;3.30;99.90
9881;DHT22;4979;51.014;6.678;2024-03-08T04:32:05;3.40;99.90
9881;DHT22;4979;51.014;6.678;2024-03-08T04:34:32;3.40;99.90
9881;DHT22;4979;51.014;6.678;2024-03-08T04:36:57;3.40;99.90
9881;DHT22;4979;51.014;6.678;2024-03-08T04:39:24;3.40;99.90
9881;DHT22;4979;51.014;6.678;2024-03-08T04:41:49;3.40;99.90
9881;DHT22;4979;51.014;6.678;2024-03-08T04:44:15;3.30;99.90
9881;DHT22;4979;51.014;6.678;2024-03-08T04:46:41;3.40;99.90
9881;DHT22;4979;51.014;6.678;2024-03-08T04:49:07;3.40;99.90
9881;DHT22;4979;51.014;6.678;2024-03-08T04:51:33;3.40;99.90
9881;DHT22;4979;51.014;6.678;2024-03-08T04:53:59;3.40;99.90
9881;DHT22;4979;51.014;6.678;2024-03-08T04:56:25;3.40;99.90
9881;DHT22;4979;51.014;6.678;2024-03-08T04:58:51;3.40;99.90
9881;DHT22;4979;51.014;6.678;2024-03-08T05:01:16;3.40;99.90
9881;DHT22;4979;51.014;6.678;2024-03-08T05:03:42;3.40;99.90
9881;DHT22;4979;51.014;6.678;2024-03-08T05:06:08;3.40;99.90
9881;DHT22;4979;51.014;6.678;2024-03-08T05:08:33;3.40;99.90
9881;DHT22;4979;51.014;6.678;2024-03-08T05:11:00;3.40;99.90
9881;DHT22;4979;51.014;6.678;2024-03-08T05:13:30;3.40;99.90
9881;DHT22;4979;51.014;6.678;2024-03-08T05:15:56;3.40;99.90
9881;DHT22;4979;51.014;6.678;2024-03-08T05:18:23;3.40;99.90
9881;DHT22;4979;51.014;6.678;2024-03-08T05:20:49;3.30;99.90
9881;DHT22;4979;51.014;6.678;2024-03-08T05:23:15;3.30;99.90
9881;DHT22;4979;51.014;6.678;2024-03-08T05:25:41;3.30;99.90
9881;DHT22;4979;51.014;6.678;2024-03-08T05:28:06;3.30;99.90
9881;DHT22;4979;51.014;6.678;2024-03-08T05:30:32;3.30;99.90
9881;DHT22;4979;51.014;6.678;2024-03-08T05:32:57;3.30;99.90
9881;DHT22;4979;51.014;6.678;2024-03-08T05:35:23;3.20;99.90
9881;DHT22;4979;51.014;6.678;2024-03-08T05:37:49;3.20;99.90
9881;DHT22;4979;51.014;6.678;2024-03-08T05:40:15;3.20;99.90
9881;DHT22;4979;51.014;6.678;2024-03-08T05:45:07;3.20;99.90
9881;DHT22;4979;51.014;6.678;2024-03-08T05:47:33;3.20;99.90
9881;DHT22;4979;51.014;6.678;2024-03-08T05:49:59;3.20;99.90
9881;DHT22;4979;51.014;6.678;2024-03-08T05:52:24;3.10;99.90
9881;DHT22;4979;51.014;6.678;2024-03-08T05:54:51;3.20;99.90
9881;DHT22;4979;51.014;6.678;2024-03-08T05:57:17;3.20;99.90
9881;DHT22;4979;51.014;6.678;2024-03-08T05:59:43;3.20;99.90
9881;DHT22;4979;51.014;6.678;2024-03-08T06:02:08;3.20;99.90
9881;DHT22;4979;51.014;6.678;2024-03-08T06:07:00;3.20;99.90
9881;DHT22;4979;51.014;6.678;2024-03-08T06:09:25;3.30;99.90
9881;DHT22;4979;51.014;6.678;2024-03-08T06:11:54;3.20;99.90
9881;DHT22;4979;51.014;6.678;2024-03-08T06:14:20;3.20;99.90
9881;DHT22;4979;51.014;6.678;2024-03-08T06:16:46;3.30;99.90
9881;DHT22;4979;51.014;6.678;2024-03-08T06:19:12;3.30;99.90
9881;DHT22;4979;51.014;6.678;2024-03-08T06:21:38;3.30;99.90
9881;DHT22;4979;51.014;6.678;2024-03-08T06:24:04;3.30;99.90
9881;DHT22;4979;51.014;6.678;2024-03-08T06:28:56;3.20;99.90
9881;DHT22;4979;51.014;6.678;2024-03-08T06:33:48;3.20;99.90
9881;DHT22;4979;51.014;6.678;2024-03-08T06:36:19;3.20;99.90
9881;DHT22;4979;51.014;6.678;2024-03-08T06:38:47;3.40;99.90
9881;DHT22;4979;51.014;6.678;2024-03-08T06:41:13;3.30;99.90
9881;DHT22;4979;51.014;6.678;2024-03-08T06:43:45;3.40;99.90
9881;DHT22;4979;51.014;6.678;2024-03-08T06:46:11;3.40;99.90
9881;DHT22;4979;51.014;6.678;2024-03-08T06:48:39;3.40;99.90
9881;DHT22;4979;51.014;6.678;2024-03-08T06:51:05;3.50;99.90
9881;DHT22;4979;51.014;6.678;2024-03-08T06:53:31;3.50;99.90
9881;DHT22;4979;51.014;6.678;2024-03-08T06:55:57;3.50;99.90
9881;DHT22;4979;51.014;6.678;2024-03-08T06:58:23;3.60;99.90
9881;DHT22;4979;51.014;6.678;2024-03-08T07:00:49;3.50;99.90
9881;DHT22;4979;51.014;6.678;2024-03-08T07:03:17;3.60;99.90
9881;DHT22;4979;51.014;6.678;2024-03-08T07:08:09;3.70;99.90
9881;DHT22;4979;51.014;6.678;2024-03-08T07:10:35;3.70;99.90
9881;DHT22;4979;51.014;6.678;2024-03-08T07:13:02;3.80;99.90
9881;DHT22;4979;51.014;6.678;2024-03-08T07:15:28;3.80;99.90
9881;DHT22;4979;51.014;6.678;2024-03-08T07:17:54;3.90;99.90
9881;DHT22;4979;51.014;6.678;2024-03-08T07:20:20;4.00;99.90
9881;DHT22;4979;51.014;6.678;2024-03-08T07:22:46;4.10;99.90
9881;DHT22;4979;51.014;6.678;2024-03-08T07:25:18;4.20;99.90
9881;DHT22;4979;51.014;6.678;2024-03-08T07:27:53;4.20;99.90
9881;DHT22;4979;51.014;6.678;2024-03-08T07:30:23;4.40;99.90
9881;DHT22;4979;51.014;6.678;2024-03-08T07:33:08;4.50;99.90
9881;DHT22;4979;51.014;6.678;2024-03-08T07:35:37;4.50;99.90
9881;DHT22;4979;51.014;6.678;2024-03-08T07:38:06;5.10;99.90
9881;DHT22;4979;51.014;6.678;2024-03-08T07:40:36;4.60;99.90
9881;DHT22;4979;51.014;6.678;2024-03-08T07:45:31;4.80;99.90
9881;DHT22;4979;51.014;6.678;2024-03-08T07:47:57;4.90;99.90
9881;DHT22;4979;51.014;6.678;2024-03-08T07:50:23;5.10;99.90
9881;DHT22;4979;51.014;6.678;2024-03-08T07:52:48;5.20;99.90
9881;DHT22;4979;51.014;6.678;2024-03-08T07:55:14;5.20;99.90
9881;DHT22;4979;51.014;6.678;2024-03-08T07:57:40;5.30;99.90
9881;DHT22;4979;51.014;6.678;2024-03-08T08:02:36;5.40;99.90
9881;DHT22;4979;51.014;6.678;2024-03-08T08:05:02;5.50;99.90
9881;DHT22;4979;51.014;6.678;2024-03-08T08:07:29;5.60;99.90
9881;DHT22;4979;51.014;6.678;2024-03-08T08:09:54;5.70;99.90
9881;DHT22;4979;51.014;6.678;2024-03-08T08:12:20;5.70;99.90
9881;DHT22;4979;51.014;6.678;2024-03-08T08:14:46;5.80;99.90
9881;DHT22;4979;51.014;6.678;2024-03-08T08:17:12;5.80;99.90
9881;DHT22;4979;51.014;6.678;2024-03-08T08:19:37;5.80;99.90
9881;DHT22;4979;51.014;6.678;2024-03-08T08:22:04;5.90;99.90
9881;DHT22;4979;51.014;6.678;2024-03-08T08:26:56;6.10;99.90
9881;DHT22;4979;51.014;6.678;2024-03-08T08:29:21;6.10;99.90
9881;DHT22;4979;51.014;6.678;2024-03-08T08:31:48;6.10;99.90
9881;DHT22;4979;51.014;6.678;2024-03-08T08:34:16;6.20;99.90
9881;DHT22;4979;51.014;6.678;2024-03-08T08:39:08;6.50;99.90
9881;DHT22;4979;51.014;6.678;2024-03-08T08:41:39;6.50;99.90
9881;DHT22;4979;51.014;6.678;2024-03-08T08:44:07;6.80;99.90
9881;DHT22;4979;51.014;6.678;2024-03-08T08:51:28;7.20;99.90
9881;DHT22;4979;51.014;6.678;2024-03-08T08:53:53;7.20;99.90
9881;DHT22;4979;51.014;6.678;2024-03-08T08:56:21;7.10;99.90
9881;DHT22;4979;51.014;6.678;2024-03-08T08:58:47;7.20;99.90
9881;DHT22;4979;51.014;6.678;2024-03-08T09:01:14;7.30;99.90
9881;DHT22;4979;51.014;6.678;2024-03-08T09:03:40;7.40;99.90
9881;DHT22;4979;51.014;6.678;2024-03-08T09:06:07;7.60;99.90
9881;DHT22;4979;51.014;6.678;2024-03-08T09:08:38;7.60;99.90
9881;DHT22;4979;51.014;6.678;2024-03-08T09:11:04;7.60;99.90
9881;DHT22;4979;51.014;6.678;2024-03-08T09:13:30;7.60;99.90
9881;DHT22;4979;51.014;6.678;2024-03-08T09:15:56;7.70;99.90
9881;DHT22;4979;51.014;6.678;2024-03-08T09:18:22;7.70;99.90
9881;DHT22;4979;51.014;6.678;2024-03-08T09:20:48;7.80;99.90
9881;DHT22;4979;51.014;6.678;2024-03-08T09:23:13;7.90;99.90
9881;DHT22;4979;51.014;6.678;2024-03-08T09:25:40;8.40;99.90
9881;DHT22;4979;51.014;6.678;2024-03-08T09:28:06;8.10;99.90
9881;DHT22;4979;51.014;6.678;2024-03-08T09:30:31;8.20;99.90
9881;DHT22;4979;51.014;6.678;2024-03-08T09:32:57;8.10;99.90
9881;DHT22;4979;51.014;6.678;2024-03-08T09:35:23;8.40;99.90
9881;DHT22;4979;51.014;6.678;2024-03-08T09:37:48;8.60;99.90
9881;DHT22;4979;51.014;6.678;2024-03-08T09:40:17;8.50;99.90
9881;DHT22;4979;51.014;6.678;2024-03-08T09:42:46;8.70;99.90
9881;DHT22;4979;51.014;6.678;2024-03-08T09:45:13;8.70;99.90
9881;DHT22;4979;51.014;6.678;2024-03-08T09:47:43;8.70;99.90
9881;DHT22;4979;51.014;6.678;2024-03-08T09:50:09;8.60;99.90
9881;DHT22;4979;51.014;6.678;2024-03-08T09:52:40;8.70;99.90
9881;DHT22;4979;51.014;6.678;2024-03-08T09:55:07;8.80;99.90
9881;DHT22;4979;51.014;6.678;2024-03-08T09:57:33;8.70;99.90
9881;DHT22;4979;51.014;6.678;2024-03-08T10:00:01;8.80;99.90
9881;DHT22;4979;51.014;6.678;2024-03-08T10:09:47;9.30;99.90
9881;DHT22;4979;51.014;6.678;2024-03-08T10:12:16;9.40;99.90
9881;DHT22;4979;51.014;6.678;2024-03-08T10:14:42;9.40;99.90
9881;DHT22;4979;51.014;6.678;2024-03-08T10:17:08;9.40;99.90
9881;DHT22;4979;51.014;6.678;2024-03-08T10:19:34;9.40;99.90
9881;DHT22;4979;51.014;6.678;2024-03-08T10:39:46;10.40;99.90
9881;DHT22;4979;51.014;6.678;2024-03-08T10:42:16;10.40;99.90
9881;DHT22;4979;51.014;6.678;2024-03-08T11:12:38;10.50;98.70
9881;DHT22;4979;51.014;6.678;2024-03-08T11:15:11;10.60;98.90
9881;DHT22;4979;51.014;6.678;2024-03-08T11:23:22;10.70;97.70
9881;DHT22;4979;51.014;6.678;2024-03-08T11:25:40;10.80;97.60
9881;DHT22;4979;51.014;6.678;2024-03-08T11:46:12;11.00;96.50
9881;DHT22;4979;51.014;6.678;2024-03-08T11:48:42;11.00;96.70
9881;DHT22;4979;51.014;6.678;2024-03-08T11:51:08;10.90;96.10
9881;DHT22;4979;51.014;6.678;2024-03-08T11:53:34;10.90;96.10
9881;DHT22;4979;51.014;6.678;2024-03-08T11:56:11;10.80;96.00
9881;DHT22;4979;51.014;6.678;2024-03-08T11:58:37;11.10;96.30
9881;DHT22;4979;51.014;6.678;2024-03-08T12:01:07;11.10;95.90
9881;DHT22;4979;51.014;6.678;2024-03-08T12:08:35;10.80;94.30
9881;DHT22;4979;51.014;6.678;2024-03-08T12:13:34;10.90;94.30
9881;DHT22;4979;51.014;6.678;2024-03-08T12:28:12;11.20;94.60
9881;DHT22;4979;51.014;6.678;2024-03-08T12:30:51;11.30;94.80
9881;DHT22;4979;51.014;6.678;2024-03-08T12:33:19;11.30;94.50
9881;DHT22;4979;51.014;6.678;2024-03-08T12:35:54;11.30;94.00
9881;DHT22;4979;51.014;6.678;2024-03-08T12:38:24;11.20;93.60
9881;DHT22;4979;51.014;6.678;2024-03-08T12:40:50;11.30;94.30
9881;DHT22;4979;51.014;6.678;2024-03-08T12:43:16;11.20;93.40
9881;DHT22;4979;51.014;6.678;2024-03-08T12:45:41;11.20;93.70
9881;DHT22;4979;51.014;6.678;2024-03-08T12:48:13;11.30;94.10
9881;DHT22;4979;51.014;6.678;2024-03-08T12:50:42;11.50;93.30
9881;DHT22;4979;51.014;6.678;2024-03-08T12:55:39;11.60;92.70
9881;DHT22;4979;51.014;6.678;2024-03-08T12:58:06;11.60;92.00
9881;DHT22;4979;51.014;6.678;2024-03-08T13:00:33;11.70;92.30
9881;DHT22;4979;51.014;6.678;2024-03-08T13:03:02;11.80;92.00
9881;DHT22;4979;51.014;6.678;2024-03-08T13:05:28;12.00;92.50
9881;DHT22;4979;51.014;6.678;2024-03-08T13:07:53;12.00;92.20
9881;DHT22;4979;51.014;6.678;2024-03-08T13:10:20;11.90;92.40
9881;DHT22;4979;51.014;6.678;2024-03-08T13:12:46;12.00;91.90
9881;DHT22;4979;51.014;6.678;2024-03-08T13:15:12;12.10;92.10
9881;DHT22;4979;51.014;6.678;2024-03-08T13:20:12;12.10;91.90
9881;DHT22;4979;51.014;6.678;2024-03-08T13:27:40;12.20;91.70
9881;DHT22;4979;51.014;6.678;2024-03-08T13:32:38;12.10;91.30
9881;DHT22;4979;51.014;6.678;2024-03-08T13:35:05;12.00;91.40
9881;DHT22;4979;51.014;6.678;2024-03-08T13:37:41;11.90;91.50
9881;DHT22;4979;51.014;6.678;2024-03-08T13:40:08;12.10;91.30
9881;DHT22;4979;51.014;6.678;2024-03-08T13:42:56;12.10;91.30
9881;DHT22;4979;51.014;6.678;2024-03-08T13:47:53;12.10;91.50
9881;DHT22;4979;51.014;6.678;2024-03-08T13:50:19;12.10;90.90
9881;DHT22;4979;51.014;6.678;2024-03-08T13:52:49;12.20;90.80
9881;DHT22;4979;51.014;6.678;2024-03-08T13:55:20;12.20;91.00
9881;DHT22;4979;51.014;6.678;2024-03-08T13:57:48;12.20;90.80
9881;DHT22;4979;51.014;6.678;2024-03-08T14:00:14;12.30;91.00
9881;DHT22;4979;51.014;6.678;2024-03-08T14:02:40;12.40;91.00
9881;DHT22;4979;51.014;6.678;2024-03-08T14:05:07;12.50;91.50
9881;DHT22;4979;51.014;6.678;2024-03-08T14:07:34;12.50;90.80
9881;DHT22;4979;51.014;6.678;2024-03-08T14:10:00;12.40;90.90
9881;DHT22;4979;51.014;6.678;2024-03-08T14:14:52;12.30;90.90
9881;DHT22;4979;51.014;6.678;2024-03-08T14:19:44;12.30;90.20
9881;DHT22;4979;51.014;6.678;2024-03-08T14:22:10;12.50;90.50
9881;DHT22;4979;51.014;6.678;2024-03-08T14:24:42;12.40;90.40
9881;DHT22;4979;51.014;6.678;2024-03-08T14:29:35;12.20;90.00
9881;DHT22;4979;51.014;6.678;2024-03-08T14:36:56;12.30;89.20
9881;DHT22;4979;51.014;6.678;2024-03-08T14:41:52;12.20;88.40
9881;DHT22;4979;51.014;6.678;2024-03-08T14:44:22;12.30;89.60
9881;DHT22;4979;51.014;6.678;2024-03-08T14:46:55;12.20;88.70
9881;DHT22;4979;51.014;6.678;2024-03-08T14:51:48;12.20;88.90
9881;DHT22;4979;51.014;6.678;2024-03-08T14:56:39;12.20;90.40
9881;DHT22;4979;51.014;6.678;2024-03-08T15:01:35;12.20;89.50
9881;DHT22;4979;51.014;6.678;2024-03-08T15:04:02;12.20;89.60
9881;DHT22;4979;51.014;6.678;2024-03-08T15:06:37;12.20;89.10
9881;DHT22;4979;51.014;6.678;2024-03-08T15:09:04;12.20;90.00
9881;DHT22;4979;51.014;6.678;2024-03-08T15:11:38;12.20;90.20
9881;DHT22;4979;51.014;6.678;2024-03-08T15:14:05;12.20;89.90
9881;DHT22;4979;51.014;6.678;2024-03-08T15:16:38;12.20;89.20
9881;DHT22;4979;51.014;6.678;2024-03-08T15:24:01;12.20;90.70
9881;DHT22;4979;51.014;6.678;2024-03-08T15:26:28;12.10;90.50
9881;DHT22;4979;51.014;6.678;2024-03-08T15:28:55;12.00;90.40
9881;DHT22;4979;51.014;6.678;2024-03-08T15:33:50;11.90;90.90
9881;DHT22;4979;51.014;6.678;2024-03-08T15:36:26;12.00;90.90
9881;DHT22;4979;51.014;6.678;2024-03-08T15:38:58;11.90;90.70
9881;DHT22;4979;51.014;6.678;2024-03-08T15:41:24;12.00;91.30
9881;DHT22;4979;51.014;6.678;2024-03-08T15:43:52;12.00;91.10
9881;DHT22;4979;51.014;6.678;2024-03-08T15:48:48;11.80;90.80
9881;DHT22;4979;51.014;6.678;2024-03-08T15:51:14;11.60;90.70
9881;DHT22;4979;51.014;6.678;2024-03-08T15:53:43;11.80;90.60
9881;DHT22;4979;51.014;6.678;2024-03-08T15:58:36;11.70;90.40
9881;DHT22;4979;51.014;6.678;2024-03-08T16:01:02;11.60;90.50
9881;DHT22;4979;51.014;6.678;2024-03-08T16:03:32;11.60;90.70
9881;DHT22;4979;51.014;6.678;2024-03-08T16:05:58;11.50;90.60
9881;DHT22;4979;51.014;6.678;2024-03-08T16:08:24;11.50;90.60
9881;DHT22;4979;51.014;6.678;2024-03-08T16:10:53;11.50;90.70
9881;DHT22;4979;51.014;6.678;2024-03-08T16:13:28;11.40;91.30
9881;DHT22;4979;51.014;6.678;2024-03-08T16:15:55;11.20;92.00
9881;DHT22;4979;51.014;6.678;2024-03-08T16:18:22;11.20;92.30
9881;DHT22;4979;51.014;6.678;2024-03-08T16:20:52;11.00;91.80
9881;DHT22;4979;51.014;6.678;2024-03-08T16:23:18;11.00;92.30
9881;DHT22;4979;51.014;6.678;2024-03-08T16:28:11;10.80;92.40
9881;DHT22;4979;51.014;6.678;2024-03-08T16:30:42;10.80;92.60
9881;DHT22;4979;51.014;6.678;2024-03-08T16:33:11;10.70;92.80
9881;DHT22;4979;51.014;6.678;2024-03-08T16:35:39;10.70;92.60
9881;DHT22;4979;51.014;6.678;2024-03-08T16:40:44;10.50;93.50
9881;DHT22;4979;51.014;6.678;2024-03-08T16:43:10;10.50;93.40
9881;DHT22;4979;51.014;6.678;2024-03-08T16:45:40;10.50;93.80
9881;DHT22;4979;51.014;6.678;2024-03-08T16:50:33;10.40;94.10
9881;DHT22;4979;51.014;6.678;2024-03-08T16:52:59;10.30;94.00
9881;DHT22;4979;51.014;6.678;2024-03-08T16:55:25;10.20;93.70
9881;DHT22;4979;51.014;6.678;2024-03-08T16:57:50;10.20;93.50
9881;DHT22;4979;51.014;6.678;2024-03-08T17:00:21;10.20;93.70
9881;DHT22;4979;51.014;6.678;2024-03-08T17:02:56;10.10;93.70
9881;DHT22;4979;51.014;6.678;2024-03-08T17:05:23;10.00;94.20
9881;DHT22;4979;51.014;6.678;2024-03-08T17:08:00;9.90;94.90
9881;DHT22;4979;51.014;6.678;2024-03-08T17:10:30;9.90;95.70
9881;DHT22;4979;51.014;6.678;2024-03-08T17:12:57;9.80;96.40
9881;DHT22;4979;51.014;6.678;2024-03-08T17:15:24;9.80;96.90
9881;DHT22;4979;51.014;6.678;2024-03-08T17:18:00;9.70;97.10
9881;DHT22;4979;51.014;6.678;2024-03-08T17:20:31;9.60;97.30
9881;DHT22;4979;51.014;6.678;2024-03-08T17:22:57;9.60;97.90
9881;DHT22;4979;51.014;6.678;2024-03-08T17:25:25;9.60;98.70
9881;DHT22;4979;51.014;6.678;2024-03-08T17:27:55;9.50;99.00
9881;DHT22;4979;51.014;6.678;2024-03-08T17:30:22;9.40;99.80
9881;DHT22;4979;51.014;6.678;2024-03-08T17:32:50;9.40;99.90
9881;DHT22;4979;51.014;6.678;2024-03-08T17:35:19;9.40;99.90
9881;DHT22;4979;51.014;6.678;2024-03-08T17:37:50;9.30;99.90
9881;DHT22;4979;51.014;6.678;2024-03-08T17:40:19;9.30;99.90
9881;DHT22;4979;51.014;6.678;2024-03-08T17:42:52;9.20;99.90
9881;DHT22;4979;51.014;6.678;2024-03-08T17:45:18;9.20;99.90
9881;DHT22;4979;51.014;6.678;2024-03-08T17:47:44;9.20;99.90
9881;DHT22;4979;51.014;6.678;2024-03-08T17:50:11;9.10;99.90
9881;DHT22;4979;51.014;6.678;2024-03-08T17:52:40;9.10;99.90
9881;DHT22;4979;51.014;6.678;2024-03-08T17:55:08;9.10;99.90
9881;DHT22;4979;51.014;6.678;2024-03-08T17:57:35;9.10;99.90
9881;DHT22;4979;51.014;6.678;2024-03-08T18:00:09;9.00;99.90
9881;DHT22;4979;51.014;6.678;2024-03-08T18:02:48;8.90;99.90
9881;DHT22;4979;51.014;6.678;2024-03-08T18:05:22;9.00;99.90
9881;DHT22;4979;51.014;6.678;2024-03-08T18:07:53;8.90;99.90
9881;DHT22;4979;51.014;6.678;2024-03-08T18:10:19;8.80;99.90
9881;DHT22;4979;51.014;6.678;2024-03-08T18:12:52;8.80;99.90
9881;DHT22;4979;51.014;6.678;2024-03-08T18:15:20;8.80;99.90
9881;DHT22;4979;51.014;6.678;2024-03-08T18:17:49;8.80;99.90
9881;DHT22;4979;51.014;6.678;2024-03-08T18:20:17;8.70;99.90
9881;DHT22;4979;51.014;6.678;2024-03-08T18:22:47;8.70;99.90
9881;DHT22;4979;51.014;6.678;2024-03-08T18:25:12;8.70;99.90
9881;DHT22;4979;51.014;6.678;2024-03-08T18:27:43;8.70;99.90
9881;DHT22;4979;51.014;6.678;2024-03-08T18:30:10;8.60;99.90
9881;DHT22;4979;51.014;6.678;2024-03-08T18:32:46;8.60;99.90
9881;DHT22;4979;51.014;6.678;2024-03-08T18:35:15;8.60;99.90
9881;DHT22;4979;51.014;6.678;2024-03-08T18:37:42;8.50;99.90
9881;DHT22;4979;51.014;6.678;2024-03-08T18:40:08;8.50;99.90
9881;DHT22;4979;51.014;6.678;2024-03-08T18:42:38;8.50;99.90
9881;DHT22;4979;51.014;6.678;2024-03-08T18:45:06;8.40;99.90
9881;DHT22;4979;51.014;6.678;2024-03-08T18:47:37;8.30;99.90
9881;DHT22;4979;51.014;6.678;2024-03-08T18:50:04;8.30;99.90
9881;DHT22;4979;51.014;6.678;2024-03-08T18:52:31;8.30;99.90
9881;DHT22;4979;51.014;6.678;2024-03-08T18:54:57;8.30;99.90
9881;DHT22;4979;51.014;6.678;2024-03-08T18:57:22;8.30;99.90
9881;DHT22;4979;51.014;6.678;2024-03-08T18:59:48;8.20;99.90
9881;DHT22;4979;51.014;6.678;2024-03-08T19:02:15;8.10;99.90
9881;DHT22;4979;51.014;6.678;2024-03-08T19:04:42;8.10;99.90
9881;DHT22;4979;51.014;6.678;2024-03-08T19:07:08;8.10;99.90
9881;DHT22;4979;51.014;6.678;2024-03-08T19:09:36;8.00;99.90
9881;DHT22;4979;51.014;6.678;2024-03-08T19:12:04;8.00;99.90
9881;DHT22;4979;51.014;6.678;2024-03-08T19:14:34;7.90;99.90
9881;DHT22;4979;51.014;6.678;2024-03-08T19:17:04;8.00;99.90
9881;DHT22;4979;51.014;6.678;2024-03-08T19:19:36;8.00;99.90
9881;DHT22;4979;51.014;6.678;2024-03-08T19:22:02;7.90;99.90
9881;DHT22;4979;51.014;6.678;2024-03-08T19:24:33;8.00;99.90
9881;DHT22;4979;51.014;6.678;2024-03-08T19:27:02;7.90;99.90
9881;DHT22;4979;51.014;6.678;2024-03-08T19:29:28;7.90;99.90
9881;DHT22;4979;51.014;6.678;2024-03-08T19:31:55;7.90;99.90